createdAt,value
2017-09-25T00:01:14.542Z,30.43
2017-09-25T00:03:41.562Z,30.83
2017-09-25T00:06:07.857Z,29.03
2017-09-25T00:08:34.146Z,27.63
2017-09-25T00:11:01.173Z,28.10
2017-09-25T00:13:28.245Z,30.50
2017-09-25T00:15:55.303Z,28.30
2017-09-25T00:18:22.309Z,29.53
2017-09-25T00:20:48.623Z,30.57
2017-09-25T00:23:14.909Z,28.97
2017-09-25T00:25:41.240Z,30.67
2017-09-25T00:28:07.550Z,30.90
2017-09-25T00:30:34.619Z,31.80
2017-09-25T00:33:00.949Z,31.23
2017-09-25T00:35:27.275Z,32.17
2017-09-25T00:37:53.588Z,30.60
2017-09-25T00:40:20.642Z,30.70
2017-09-25T00:42:47.709Z,31.40
2017-09-25T00:45:14.353Z,30.83
2017-09-25T00:47:40.658Z,30.60
2017-09-25T00:50:07.689Z,30.87
2017-09-25T00:52:47.265Z,30.90
2017-09-25T00:55:26.028Z,29.37
2017-09-25T00:57:52.366Z,29.03
2017-09-25T01:00:31.148Z,29.87
2017-09-25T01:03:09.889Z,28.60
2017-09-25T01:05:48.555Z,27.07
2017-09-25T01:08:15.638Z,27.87
2017-09-25T01:10:42.431Z,28.23
2017-09-25T01:13:09.017Z,26.87
2017-09-25T01:15:36.073Z,29.37
2017-09-25T01:18:02.827Z,29.50
2017-09-25T01:20:29.109Z,27.30
2017-09-25T01:22:55.417Z,29.23
2017-09-25T01:25:22.460Z,28.90
2017-09-25T01:27:49.500Z,28.40
2017-09-25T01:30:15.775Z,29.13
2017-09-25T01:32:42.098Z,28.93
2017-09-25T01:35:08.386Z,27.03
2017-09-25T01:37:36.167Z,27.00
2017-09-25T01:40:02.480Z,26.90
2017-09-25T01:42:29.555Z,26.77
2017-09-25T01:44:56.588Z,28.00
2017-09-25T01:47:23.640Z,27.77
2017-09-25T01:49:51.617Z,28.20
2017-09-25T01:52:17.922Z,26.70
2017-09-25T01:54:44.216Z,28.37
2017-09-25T01:57:10.614Z,27.47
2017-09-25T01:59:37.758Z,29.20
2017-09-25T02:02:04.794Z,29.33
2017-09-25T02:04:31.869Z,27.63
2017-09-25T02:06:58.441Z,28.60
2017-09-25T02:09:24.722Z,28.10
2017-09-25T02:11:51.749Z,28.10
2017-09-25T02:14:18.029Z,27.57
2017-09-25T02:16:44.328Z,28.60
2017-09-25T02:19:10.616Z,29.10
2017-09-25T02:21:36.918Z,26.90
2017-09-25T02:24:03.212Z,30.07
2017-09-25T02:26:30.259Z,28.07
2017-09-25T02:28:57.307Z,29.30
2017-09-25T02:31:24.345Z,29.27
2017-09-25T02:33:51.403Z,28.33
2017-09-25T02:36:18.497Z,29.20
2017-09-25T02:38:44.802Z,28.83
2017-09-25T02:41:11.171Z,27.43
2017-09-25T02:43:37.446Z,28.93
2017-09-25T02:46:03.729Z,29.00
2017-09-25T02:48:30.025Z,29.50
2017-09-25T02:50:56.332Z,29.23
2017-09-25T02:53:23.406Z,30.80
2017-09-25T02:55:49.691Z,30.20
2017-09-25T02:58:17.702Z,30.20
2017-09-25T03:00:44.007Z,29.73
2017-09-25T03:03:11.054Z,28.77
2017-09-25T03:05:38.062Z,27.50
2017-09-25T03:08:04.380Z,30.73
2017-09-25T03:10:30.665Z,28.60
2017-09-25T03:12:57.767Z,28.77
2017-09-25T03:15:24.048Z,28.13
2017-09-25T03:17:51.088Z,29.50
2017-09-25T03:20:17.386Z,28.93
2017-09-25T03:22:51.711Z,28.00
2017-09-25T03:25:18.741Z,28.90
2017-09-25T03:27:45.042Z,29.90
2017-09-25T03:30:11.344Z,29.83
2017-09-25T03:32:38.401Z,29.77
2017-09-25T03:35:04.691Z,29.00
2017-09-25T03:37:31.740Z,29.17
2017-09-25T03:39:58.048Z,27.53
2017-09-25T03:42:24.341Z,29.07
2017-09-25T03:44:50.622Z,29.73
2017-09-25T03:47:16.910Z,29.83
2017-09-25T03:49:43.233Z,28.70
2017-09-25T03:52:09.543Z,29.27
2017-09-25T03:54:36.569Z,28.57
2017-09-25T03:57:03.606Z,27.73
2017-09-25T03:59:31.400Z,29.00
2017-09-25T04:01:58.408Z,27.67
2017-09-25T04:04:24.692Z,28.30
2017-09-25T04:06:50.993Z,29.20
2017-09-25T04:09:18.653Z,28.70
2017-09-25T04:11:45.686Z,28.73
2017-09-25T04:14:13.453Z,28.93
2017-09-25T04:16:40.498Z,29.47
2017-09-25T04:19:06.778Z,30.37
2017-09-25T04:21:33.086Z,30.43
2017-09-25T04:24:00.095Z,28.33
2017-09-25T04:26:26.373Z,27.87
2017-09-25T04:28:52.662Z,29.57
2017-09-25T04:31:20.441Z,31.10
2017-09-25T04:33:47.457Z,29.17
2017-09-25T04:36:13.744Z,31.27
2017-09-25T04:38:40.013Z,30.83
2017-09-25T04:41:06.308Z,29.33
2017-09-25T04:43:32.574Z,29.90
2017-09-25T04:45:58.861Z,28.50
2017-09-25T04:48:25.162Z,30.70
2017-09-25T04:50:52.197Z,29.73
2017-09-25T04:53:19.981Z,29.53
2017-09-25T04:55:47.805Z,29.73
2017-09-25T04:58:14.912Z,30.87
2017-09-25T05:00:41.189Z,29.90
2017-09-25T05:03:07.493Z,30.00
2017-09-25T05:05:33.794Z,30.47
2017-09-25T05:08:00.094Z,29.40
2017-09-25T05:10:26.394Z,31.17
2017-09-25T05:12:52.706Z,31.93
2017-09-25T05:15:19.003Z,30.73
2017-09-25T05:17:46.042Z,32.87
2017-09-25T05:20:13.091Z,31.33
2017-09-25T05:22:40.154Z,32.53
2017-09-25T05:25:07.208Z,32.60
2017-09-25T05:27:33.520Z,32.00
2017-09-25T05:29:59.836Z,31.70
2017-09-25T05:32:26.145Z,31.80
2017-09-25T05:34:52.443Z,32.27
2017-09-25T05:37:18.737Z,31.73
2017-09-25T05:39:45.804Z,32.83
2017-09-25T05:42:12.116Z,32.53
2017-09-25T05:44:39.154Z,34.40
2017-09-25T05:47:06.207Z,32.10
2017-09-25T05:49:33.235Z,31.77
2017-09-25T05:52:00.293Z,32.70
2017-09-25T05:54:27.348Z,33.70
2017-09-25T05:56:53.648Z,32.37
2017-09-25T05:59:19.937Z,31.43
2017-09-25T06:01:46.212Z,31.03
2017-09-25T06:04:12.623Z,31.40
2017-09-25T06:06:38.923Z,30.60
2017-09-25T06:09:05.306Z,30.10
2017-09-25T06:11:31.586Z,31.17
2017-09-25T06:13:57.889Z,29.67
2017-09-25T06:16:24.920Z,30.00
2017-09-25T06:18:51.959Z,30.23
2017-09-25T06:21:18.998Z,29.93
2017-09-25T06:23:45.311Z,29.67
2017-09-25T06:26:11.635Z,29.67
2017-09-25T06:28:37.948Z,29.57
2017-09-25T06:31:04.268Z,28.23
2017-09-25T06:33:30.578Z,29.17
2017-09-25T06:35:56.951Z,28.93
2017-09-25T06:38:23.273Z,29.03
2017-09-25T06:40:50.329Z,28.80
2017-09-25T06:43:16.625Z,26.90
2017-09-25T06:45:42.942Z,28.50
2017-09-25T06:48:09.251Z,27.37
2017-09-25T06:50:35.572Z,28.63
2017-09-25T06:53:01.871Z,27.43
2017-09-25T06:55:28.187Z,28.53
2017-09-25T06:57:54.513Z,28.67
2017-09-25T07:00:20.898Z,26.93
2017-09-25T07:02:47.958Z,27.93
2017-09-25T07:05:15.018Z,26.50
2017-09-25T07:07:42.065Z,26.90
2017-09-25T07:10:09.116Z,27.50
2017-09-25T07:12:36.180Z,25.40
2017-09-25T07:15:02.494Z,27.40
2017-09-25T07:17:29.573Z,27.57
2017-09-25T07:19:55.864Z,26.60
2017-09-25T07:22:22.908Z,28.73
2017-09-25T07:24:49.952Z,26.40
2017-09-25T07:27:17.035Z,27.33
2017-09-25T07:29:43.301Z,27.20
2017-09-25T07:32:11.064Z,27.97
2017-09-25T07:34:38.137Z,27.97
2017-09-25T07:37:05.235Z,28.80
2017-09-25T07:39:31.594Z,28.40
2017-09-25T07:41:57.896Z,26.13
2017-09-25T07:44:24.197Z,26.30
2017-09-25T07:46:51.229Z,26.83
2017-09-25T07:49:18.344Z,26.97
2017-09-25T07:51:44.957Z,28.40
2017-09-25T07:54:11.271Z,28.87
2017-09-25T07:56:37.608Z,27.90
2017-09-25T07:59:03.910Z,27.10
2017-09-25T08:01:30.962Z,27.40
2017-09-25T08:03:57.298Z,28.53
2017-09-25T08:06:23.675Z,26.07
2017-09-25T08:08:49.994Z,26.27
2017-09-25T08:11:16.312Z,26.53
2017-09-25T08:13:42.653Z,27.93
2017-09-25T08:16:08.978Z,26.83
2017-09-25T08:18:35.290Z,26.63
2017-09-25T08:21:01.586Z,26.60
2017-09-25T08:23:28.620Z,27.30
2017-09-25T08:25:56.414Z,26.90
2017-09-25T08:28:23.451Z,26.00
2017-09-25T08:30:50.519Z,26.50
2017-09-25T08:33:16.811Z,24.37
2017-09-25T08:35:43.123Z,24.77
2017-09-25T08:38:10.196Z,26.00
2017-09-25T08:40:37.277Z,24.43
2017-09-25T08:43:03.553Z,23.73
2017-09-25T08:45:30.613Z,22.20
2017-09-25T08:47:56.914Z,21.30
2017-09-25T08:50:23.241Z,20.93
2017-09-25T08:52:49.561Z,20.23
2017-09-25T08:55:15.857Z,20.77
2017-09-25T08:57:42.925Z,20.00
2017-09-25T09:00:09.218Z,19.63
2017-09-25T09:02:35.518Z,20.43
2017-09-25T09:05:01.825Z,20.10
2017-09-25T09:07:28.140Z,20.00
2017-09-25T09:09:54.486Z,20.20
2017-09-25T09:12:20.793Z,18.27
2017-09-25T09:14:47.075Z,17.70
2017-09-25T09:17:14.151Z,17.57
2017-09-25T09:19:40.458Z,17.10
2017-09-25T09:22:08.260Z,18.17
2017-09-25T09:24:34.550Z,16.17
2017-09-25T09:27:02.362Z,16.50
2017-09-25T09:29:28.717Z,17.10
2017-09-25T09:31:55.045Z,16.70
2017-09-25T09:34:21.444Z,17.03
2017-09-25T09:36:47.733Z,16.63
2017-09-25T09:39:15.553Z,17.17
2017-09-25T09:41:41.862Z,14.90
2017-09-25T09:44:08.953Z,15.50
2017-09-25T09:46:35.289Z,16.00
2017-09-25T09:49:01.640Z,15.87
2017-09-25T09:51:28.729Z,15.20
2017-09-25T09:53:55.111Z,14.57
2017-09-25T09:56:21.456Z,14.03
2017-09-25T09:58:48.526Z,14.53
2017-09-25T10:01:15.578Z,13.63
2017-09-25T10:03:42.627Z,14.00
2017-09-25T10:06:08.944Z,14.57
2017-09-25T10:08:36.044Z,14.53
2017-09-25T10:11:02.334Z,14.57
2017-09-25T10:13:29.493Z,14.83
2017-09-25T10:15:55.815Z,14.53
2017-09-25T10:18:22.140Z,15.37
2017-09-25T10:20:49.199Z,14.83
2017-09-25T10:23:15.533Z,14.70
2017-09-25T10:25:41.873Z,14.87
2017-09-25T10:28:08.181Z,15.00
2017-09-25T10:30:34.538Z,13.63
2017-09-25T10:33:00.853Z,14.07
2017-09-25T10:35:27.178Z,13.90
2017-09-25T10:37:53.495Z,13.47
2017-09-25T10:40:20.553Z,12.80
2017-09-25T10:42:47.599Z,12.37
2017-09-25T10:45:13.913Z,13.17
2017-09-25T10:47:40.228Z,13.10
2017-09-25T10:50:07.394Z,12.03
2017-09-25T10:52:33.748Z,13.73
2017-09-25T10:55:00.081Z,13.70
2017-09-25T10:57:27.111Z,13.27
2017-09-25T10:59:54.193Z,14.23
2017-09-25T11:02:20.516Z,12.53
2017-09-25T11:04:46.881Z,12.70
2017-09-25T11:07:13.216Z,12.53
2017-09-25T11:09:39.562Z,12.80
2017-09-25T11:12:07.370Z,11.90
2017-09-25T11:14:34.403Z,12.17
2017-09-25T11:17:01.453Z,12.13
2017-09-25T11:19:27.767Z,13.27
2017-09-25T11:21:54.847Z,12.63
2017-09-25T11:24:21.149Z,11.27
2017-09-25T11:26:47.482Z,12.20
2017-09-25T11:29:14.517Z,12.40
2017-09-25T11:31:41.581Z,12.10
2017-09-25T11:34:07.906Z,12.70
2017-09-25T11:36:34.966Z,12.67
2017-09-25T11:39:01.368Z,12.60
2017-09-25T11:41:28.426Z,11.70
2017-09-25T11:43:54.786Z,12.27
2017-09-25T11:46:21.321Z,11.90
2017-09-25T11:48:47.650Z,12.40
2017-09-25T11:51:13.964Z,11.40
2017-09-25T11:53:40.258Z,11.53
2017-09-25T11:56:06.547Z,11.10
2017-09-25T11:58:32.872Z,10.70
2017-09-25T12:00:59.154Z,10.40
2017-09-25T12:03:25.441Z,10.10
2017-09-25T12:05:51.720Z,9.70
2017-09-25T12:08:19.664Z,8.80
2017-09-25T12:10:45.974Z,7.87
2017-09-25T12:13:12.322Z,8.10
2017-09-25T12:15:39.397Z,8.33
2017-09-25T12:18:06.657Z,8.20
2017-09-25T12:20:33.726Z,7.37
2017-09-25T12:23:00.040Z,7.17
2017-09-25T12:25:27.111Z,7.37
2017-09-25T12:27:53.433Z,7.97
2017-09-25T12:30:19.727Z,8.10
2017-09-25T12:32:46.029Z,7.90
2017-09-25T12:35:12.335Z,7.57
2017-09-25T12:37:38.636Z,7.73
2017-09-25T12:40:05.666Z,7.63
2017-09-25T12:42:32.722Z,8.10
2017-09-25T12:44:59.774Z,7.43
2017-09-25T12:47:26.095Z,7.27
2017-09-25T12:49:53.139Z,7.17
2017-09-25T12:52:19.422Z,7.80
2017-09-25T12:54:45.755Z,7.83
2017-09-25T12:57:12.044Z,8.97
2017-09-25T12:59:38.364Z,7.47
2017-09-25T13:02:05.430Z,8.30
2017-09-25T13:04:32.481Z,7.93
2017-09-25T13:06:58.767Z,7.50
2017-09-25T13:09:25.084Z,8.67
2017-09-25T13:11:51.442Z,8.30
2017-09-25T13:14:18.501Z,8.60
2017-09-25T13:16:45.558Z,7.90
2017-09-25T13:19:13.114Z,8.07
2017-09-25T13:21:40.153Z,8.90
2017-09-25T13:24:07.219Z,8.60
2017-09-25T13:26:33.551Z,9.03
2017-09-25T13:28:59.861Z,7.90
2017-09-25T13:31:26.904Z,8.60
2017-09-25T13:33:53.961Z,8.67
2017-09-25T13:36:21.016Z,8.80
2017-09-25T13:38:47.338Z,8.70
2017-09-25T13:41:15.214Z,8.67
2017-09-25T13:43:42.283Z,8.90
2017-09-25T13:46:08.590Z,9.00
2017-09-25T13:48:35.632Z,9.07
2017-09-25T13:51:02.715Z,8.97
2017-09-25T13:53:29.034Z,8.63
2017-09-25T13:55:55.340Z,8.73
2017-09-25T13:58:22.386Z,9.90
2017-09-25T14:03:22.278Z,8.90
2017-09-25T14:05:48.639Z,9.20
2017-09-25T14:08:15.042Z,10.07
2017-09-25T14:10:41.426Z,11.23
2017-09-25T14:13:07.753Z,12.77
2017-09-25T14:15:34.118Z,12.90
2017-09-25T14:18:00.506Z,13.57
2017-09-25T14:20:27.604Z,13.00
2017-09-25T14:22:53.954Z,14.60
2017-09-25T14:25:21.916Z,14.23
2017-09-25T14:27:48.281Z,12.77
2017-09-25T14:30:14.679Z,13.03
2017-09-25T14:32:41.061Z,20.43
2017-09-25T14:35:07.442Z,16.93
2017-09-25T14:37:33.881Z,13.67
2017-09-25T14:40:00.233Z,13.93
2017-09-25T14:42:27.357Z,13.60
2017-09-25T14:44:54.472Z,14.00
2017-09-25T14:47:20.863Z,13.30
2017-09-25T14:49:47.975Z,14.80
2017-09-25T14:52:14.323Z,14.30
2017-09-25T14:54:40.690Z,14.83
2017-09-25T14:57:07.857Z,14.97
2017-09-25T14:59:34.250Z,14.50
2017-09-25T15:02:00.615Z,14.10
2017-09-25T15:04:26.951Z,16.13
2017-09-25T15:06:53.298Z,15.43
2017-09-25T15:09:19.647Z,14.77
2017-09-25T15:11:46.219Z,14.47
2017-09-25T15:14:12.682Z,15.23
2017-09-25T15:16:39.116Z,14.80
2017-09-25T15:19:05.494Z,15.40
2017-09-25T15:21:31.863Z,16.23
2017-09-25T15:23:58.241Z,16.03
2017-09-25T15:26:26.074Z,16.23
2017-09-25T15:28:52.458Z,14.77
2017-09-25T15:31:20.290Z,15.60
2017-09-25T15:33:46.634Z,16.57
2017-09-25T15:36:12.975Z,17.73
2017-09-25T15:38:39.333Z,16.40
2017-09-25T15:41:05.683Z,16.13
2017-09-25T15:43:32.021Z,16.83
2017-09-25T15:45:58.348Z,17.53
2017-09-25T15:48:24.784Z,15.83
2017-09-25T15:50:52.041Z,16.83
2017-09-25T15:53:18.393Z,17.77
2017-09-25T15:55:44.750Z,16.90
2017-09-25T15:58:12.268Z,17.63
2017-09-25T16:00:38.607Z,16.37
2017-09-25T16:03:05.251Z,17.47
2017-09-25T16:05:31.694Z,17.30
2017-09-25T16:07:59.553Z,18.10
2017-09-25T16:10:25.884Z,18.23
2017-09-25T16:12:52.390Z,17.70
2017-09-25T16:15:18.733Z,18.20
2017-09-25T16:17:45.079Z,18.03
2017-09-25T16:20:11.428Z,18.33
2017-09-25T16:22:38.517Z,17.47
2017-09-25T16:25:06.755Z,17.47
2017-09-25T16:27:34.204Z,15.73
2017-09-25T16:30:02.594Z,14.53
2017-09-25T16:32:29.803Z,16.07
2017-09-25T16:34:56.598Z,15.00
2017-09-25T16:37:24.631Z,15.63
2017-09-25T16:39:50.988Z,15.33
2017-09-25T16:42:18.181Z,12.87
2017-09-25T16:44:44.858Z,14.80
2017-09-25T16:47:12.777Z,14.10
2017-09-25T16:49:39.224Z,14.53
2017-09-25T16:52:05.637Z,15.87
2017-09-25T16:54:32.014Z,15.17
2017-09-25T16:56:59.470Z,14.47
2017-09-25T16:59:25.864Z,15.30
2017-09-25T17:01:52.781Z,15.70
2017-09-25T17:04:19.977Z,14.60
2017-09-25T17:06:46.340Z,15.40
2017-09-25T17:09:12.853Z,14.50
2017-09-25T17:11:39.990Z,14.30
2017-09-25T17:14:06.348Z,14.63
2017-09-25T17:16:32.699Z,14.70
2017-09-25T17:18:59.783Z,14.60
2017-09-25T17:21:26.181Z,14.90
2017-09-25T17:23:53.995Z,14.10
2017-09-25T17:26:20.382Z,14.13
2017-09-25T17:28:46.753Z,12.40
2017-09-25T17:31:13.906Z,12.67
2017-09-25T17:33:40.269Z,12.47
2017-09-25T17:36:06.669Z,11.47
2017-09-25T17:38:33.041Z,10.27
2017-09-25T17:41:00.507Z,10.90
2017-09-25T17:43:28.175Z,9.87
2017-09-25T17:45:55.365Z,10.03
2017-09-25T17:48:21.781Z,9.70
2017-09-25T17:50:48.146Z,9.80
2017-09-25T17:53:14.516Z,9.93
2017-09-25T17:55:41.666Z,10.07
2017-09-25T17:58:08.861Z,9.40
2017-09-25T18:00:35.297Z,8.67
2017-09-25T18:03:01.966Z,9.50
2017-09-25T18:05:28.340Z,10.20
2017-09-25T18:07:54.733Z,9.53
2017-09-25T18:10:22.575Z,9.43
2017-09-25T18:12:49.060Z,9.63
2017-09-25T18:15:16.022Z,10.73
2017-09-25T18:17:42.790Z,10.30
2017-09-25T18:20:09.986Z,10.93
2017-09-25T18:22:37.030Z,10.27
2017-09-25T18:25:03.773Z,9.93
2017-09-25T18:27:31.362Z,9.90
2017-09-25T18:29:58.703Z,10.40
2017-09-25T18:32:25.252Z,10.87
2017-09-25T18:34:52.518Z,9.93
2017-09-25T18:37:18.861Z,10.30
2017-09-25T18:39:45.270Z,10.43
2017-09-25T18:42:11.636Z,10.43
2017-09-25T18:44:38.092Z,9.07
2017-09-25T18:47:04.442Z,10.30
2017-09-25T18:49:31.526Z,11.23
2017-09-25T18:51:57.862Z,10.47
2017-09-25T18:54:24.278Z,9.60
2017-09-25T18:56:50.642Z,9.97
2017-09-25T18:59:17.039Z,10.10
2017-09-25T19:01:43.502Z,9.90
2017-09-25T19:04:09.877Z,10.83
2017-09-25T19:06:36.960Z,10.80
2017-09-25T19:09:04.239Z,9.80
2017-09-25T19:11:30.675Z,10.90
2017-09-25T19:13:57.097Z,11.23
2017-09-25T19:16:23.512Z,11.43
2017-09-25T19:18:49.919Z,10.80
2017-09-25T19:21:18.057Z,11.13
2017-09-25T19:23:44.520Z,11.07
2017-09-25T19:26:11.678Z,10.43
2017-09-25T19:28:38.149Z,11.47
2017-09-25T19:31:05.023Z,11.37
2017-09-25T19:33:31.605Z,11.00
2017-09-25T19:35:58.170Z,12.20
2017-09-25T19:38:24.591Z,10.93
2017-09-25T19:40:51.063Z,12.17
2017-09-25T19:43:18.262Z,11.70
2017-09-25T19:45:45.723Z,11.37
2017-09-25T19:48:12.173Z,11.17
2017-09-25T19:50:41.700Z,11.80
2017-09-25T19:53:08.128Z,11.13
2017-09-25T19:55:41.428Z,12.70
2017-09-25T19:58:08.746Z,10.70
2017-09-25T20:00:35.206Z,11.67
2017-09-25T20:03:02.392Z,11.30
2017-09-25T20:05:28.823Z,11.67
2017-09-25T20:07:55.305Z,12.30
2017-09-25T20:10:21.752Z,12.23
2017-09-25T20:12:48.991Z,12.07
2017-09-25T20:15:28.436Z,12.30
2017-09-25T20:17:54.814Z,11.90
2017-09-25T20:20:21.982Z,12.63
2017-09-25T20:22:49.190Z,12.23
2017-09-25T20:25:16.337Z,12.17
2017-09-25T20:27:43.501Z,11.70
2017-09-25T20:30:10.638Z,13.10
2017-09-25T20:32:37.042Z,13.37
2017-09-25T20:35:03.483Z,12.50
2017-09-25T20:37:29.888Z,12.20
2017-09-25T20:39:56.299Z,13.40
2017-09-25T20:42:22.702Z,14.07
2017-09-25T20:44:49.824Z,13.27
2017-09-25T20:47:16.203Z,12.30
2017-09-25T20:49:42.579Z,12.53
2017-09-25T20:52:08.965Z,13.20
2017-09-25T20:54:36.095Z,14.27
2017-09-25T20:57:03.199Z,13.90
2017-09-25T20:59:29.563Z,14.70
2017-09-25T21:01:55.915Z,13.47
2017-09-25T21:04:23.029Z,14.93
2017-09-25T21:06:49.404Z,14.20
2017-09-25T21:09:15.762Z,13.27
2017-09-25T21:11:42.168Z,14.10
2017-09-25T21:14:08.577Z,15.43
2017-09-25T21:16:35.731Z,15.40
2017-09-25T21:19:03.630Z,14.33
2017-09-25T21:21:30.015Z,15.33
2017-09-25T21:23:56.381Z,14.70
2017-09-25T21:26:25.458Z,15.57
2017-09-25T21:28:51.838Z,14.80
2017-09-25T21:31:18.212Z,16.67
2017-09-25T21:33:44.582Z,14.20
2017-09-25T21:36:11.687Z,14.33
2017-09-25T21:38:38.060Z,16.40
2017-09-25T21:41:05.255Z,15.67
2017-09-25T21:43:31.734Z,15.20
2017-09-25T21:45:58.044Z,16.10
2017-09-25T21:48:24.464Z,15.50
2017-09-25T21:50:50.815Z,15.73
2017-09-25T21:53:17.928Z,15.07
2017-09-25T21:55:44.302Z,14.07
2017-09-25T21:58:10.644Z,16.30
2017-09-25T22:00:37.718Z,16.67
2017-09-25T22:03:04.059Z,15.03
2017-09-25T22:05:30.479Z,16.23
2017-09-25T22:07:56.819Z,17.60
2017-09-25T22:10:23.169Z,14.97
2017-09-25T22:12:49.526Z,15.83
2017-09-25T22:15:15.864Z,16.10
2017-09-25T22:17:42.932Z,14.97
2017-09-25T22:20:10.017Z,15.20
2017-09-25T22:22:36.352Z,15.77
2017-09-25T22:25:02.713Z,16.60
2017-09-25T22:27:29.046Z,15.93
2017-09-25T22:29:56.132Z,16.07
2017-09-25T22:32:22.489Z,16.40
2017-09-25T22:34:48.882Z,15.97
2017-09-25T22:37:15.989Z,15.27
2017-09-25T22:39:42.350Z,16.30
2017-09-25T22:42:09.452Z,15.80
2017-09-25T22:44:35.814Z,15.53
2017-09-25T22:47:02.880Z,16.30
2017-09-25T22:49:29.969Z,16.33
2017-09-25T22:51:56.328Z,15.37
2017-09-25T22:54:23.445Z,16.13
2017-09-25T22:56:49.804Z,16.67
2017-09-25T22:59:16.162Z,14.63
2017-09-25T23:01:43.379Z,15.93
2017-09-25T23:04:11.661Z,16.93
2017-09-25T23:06:38.808Z,16.10
2017-09-25T23:09:05.165Z,15.90
2017-09-25T23:11:47.198Z,15.10
2017-09-25T23:14:14.282Z,17.27
2017-09-25T23:16:40.632Z,17.20
2017-09-25T23:19:07.739Z,15.60
2017-09-25T23:21:34.100Z,15.93
2017-09-25T23:24:00.426Z,16.87
2017-09-25T23:26:26.761Z,18.40
2017-09-25T23:28:53.977Z,17.73
2017-09-25T23:31:22.259Z,16.57
2017-09-25T23:33:48.586Z,17.53
2017-09-25T23:36:14.941Z,17.50
2017-09-25T23:38:41.273Z,17.30
2017-09-25T23:41:07.621Z,16.70
2017-09-25T23:43:33.943Z,18.20
2017-09-25T23:46:00.269Z,16.50
2017-09-25T23:48:26.627Z,18.00
2017-09-25T23:50:52.948Z,17.70
2017-09-25T23:53:20.029Z,17.13
2017-09-25T23:55:46.367Z,18.00
2017-09-25T23:58:12.693Z,17.50
